sensor_id;sensor_type;location;lat;lon;timestamp;temperature;humidity
360;DHT22;168;48.872;9.226;2023-02-15T00:01:58;2.30;99.50
360;DHT22;168;48.872;9.226;2023-02-15T00:04:26;2.40;99.90
360;DHT22;168;48.872;9.226;2023-02-15T00:07:13;2.30;99.90
360;DHT22;168;48.872;9.226;2023-02-15T00:09:41;2.10;99.20
360;DHT22;168;48.872;9.226;2023-02-15T00:12:09;2.00;99.10
360;DHT22;168;48.872;9.226;2023-02-15T00:14:38;2.10;99.00
360;DHT22;168;48.872;9.226;2023-02-15T00:17:05;2.00;98.40
360;DHT22;168;48.872;9.226;2023-02-15T00:19:33;2.00;97.80
360;DHT22;168;48.872;9.226;2023-02-15T00:22:00;2.00;97.50
360;DHT22;168;48.872;9.226;2023-02-15T00:24:27;2.10;97.70
360;DHT22;168;48.872;9.226;2023-02-15T00:26:55;2.10;97.60
360;DHT22;168;48.872;9.226;2023-02-15T00:29:22;2.10;97.60
360;DHT22;168;48.872;9.226;2023-02-15T00:31:51;2.00;97.40
360;DHT22;168;48.872;9.226;2023-02-15T00:34:21;2.10;97.80
360;DHT22;168;48.872;9.226;2023-02-15T00:36:49;2.10;98.10
360;DHT22;168;48.872;9.226;2023-02-15T00:39:17;2.00;98.10
360;DHT22;168;48.872;9.226;2023-02-15T00:41:45;2.00;97.80
360;DHT22;168;48.872;9.226;2023-02-15T00:44:13;2.00;97.90
360;DHT22;168;48.872;9.226;2023-02-15T00:46:41;2.00;98.00
360;DHT22;168;48.872;9.226;2023-02-15T00:49:10;1.90;97.80
360;DHT22;168;48.872;9.226;2023-02-15T00:51:37;1.90;97.80
360;DHT22;168;48.872;9.226;2023-02-15T00:54:05;1.90;97.40
360;DHT22;168;48.872;9.226;2023-02-15T00:56:33;1.90;97.20
360;DHT22;168;48.872;9.226;2023-02-15T00:59:00;1.90;97.20
360;DHT22;168;48.872;9.226;2023-02-15T01:01:28;1.90;97.20
360;DHT22;168;48.872;9.226;2023-02-15T01:03:55;1.90;97.20
360;DHT22;168;48.872;9.226;2023-02-15T01:06:24;1.90;97.40
360;DHT22;168;48.872;9.226;2023-02-15T01:08:51;1.90;97.90
360;DHT22;168;48.872;9.226;2023-02-15T01:11:21;1.80;98.60
360;DHT22;168;48.872;9.226;2023-02-15T01:13:49;1.70;98.50
360;DHT22;168;48.872;9.226;2023-02-15T01:16:17;1.70;98.30
360;DHT22;168;48.872;9.226;2023-02-15T01:18:44;1.70;98.40
360;DHT22;168;48.872;9.226;2023-02-15T01:21:13;1.70;98.70
360;DHT22;168;48.872;9.226;2023-02-15T01:23:42;1.70;98.70
360;DHT22;168;48.872;9.226;2023-02-15T01:26:10;1.60;98.50
360;DHT22;168;48.872;9.226;2023-02-15T01:28:37;1.60;98.20
360;DHT22;168;48.872;9.226;2023-02-15T01:31:06;1.60;98.60
360;DHT22;168;48.872;9.226;2023-02-15T01:33:34;1.50;98.70
360;DHT22;168;48.872;9.226;2023-02-15T01:36:02;1.40;98.30
360;DHT22;168;48.872;9.226;2023-02-15T01:38:30;1.40;97.80
360;DHT22;168;48.872;9.226;2023-02-15T01:40:59;1.40;97.80
360;DHT22;168;48.872;9.226;2023-02-15T01:43:46;1.40;97.70
360;DHT22;168;48.872;9.226;2023-02-15T01:46:15;1.60;98.50
360;DHT22;168;48.872;9.226;2023-02-15T01:48:45;1.80;99.80
360;DHT22;168;48.872;9.226;2023-02-15T01:51:15;1.70;99.90
360;DHT22;168;48.872;9.226;2023-02-15T01:53:48;1.60;99.90
360;DHT22;168;48.872;9.226;2023-02-15T01:56:21;1.50;99.90
360;DHT22;168;48.872;9.226;2023-02-15T01:58:50;1.40;99.90
360;DHT22;168;48.872;9.226;2023-02-15T02:01:19;1.30;99.80
360;DHT22;168;48.872;9.226;2023-02-15T02:03:55;1.30;99.60
360;DHT22;168;48.872;9.226;2023-02-15T02:06:23;1.30;99.70
360;DHT22;168;48.872;9.226;2023-02-15T02:08:52;1.30;99.90
360;DHT22;168;48.872;9.226;2023-02-15T02:11:21;1.30;99.90
360;DHT22;168;48.872;9.226;2023-02-15T02:13:50;1.30;99.90
360;DHT22;168;48.872;9.226;2023-02-15T02:16:21;1.30;99.90
360;DHT22;168;48.872;9.226;2023-02-15T02:18:59;1.30;99.90
360;DHT22;168;48.872;9.226;2023-02-15T02:22:01;1.20;99.90
360;DHT22;168;48.872;9.226;2023-02-15T02:27:42;1.10;99.90
360;DHT22;168;48.872;9.226;2023-02-15T02:30:42;1.10;99.90
360;DHT22;168;48.872;9.226;2023-02-15T02:33:39;0.90;99.90
360;DHT22;168;48.872;9.226;2023-02-15T02:36:17;0.80;99.40
360;DHT22;168;48.872;9.226;2023-02-15T02:39:00;0.90;99.20
360;DHT22;168;48.872;9.226;2023-02-15T02:41:32;1.00;99.90
360;DHT22;168;48.872;9.226;2023-02-15T02:44:10;0.80;99.90
360;DHT22;168;48.872;9.226;2023-02-15T02:46:47;0.90;99.90
360;DHT22;168;48.872;9.226;2023-02-15T02:49:17;1.00;99.90
360;DHT22;168;48.872;9.226;2023-02-15T02:51:58;0.90;99.90
360;DHT22;168;48.872;9.226;2023-02-15T02:54:26;0.80;99.90
360;DHT22;168;48.872;9.226;2023-02-15T02:56:55;0.60;99.90
360;DHT22;168;48.872;9.226;2023-02-15T02:59:27;0.50;99.90
360;DHT22;168;48.872;9.226;2023-02-15T03:02:00;0.40;99.90
360;DHT22;168;48.872;9.226;2023-02-15T03:04:32;0.30;99.90
360;DHT22;168;48.872;9.226;2023-02-15T03:07:04;0.20;99.90
360;DHT22;168;48.872;9.226;2023-02-15T03:09:36;0.20;99.90
360;DHT22;168;48.872;9.226;2023-02-15T03:12:11;0.20;99.90
360;DHT22;168;48.872;9.226;2023-02-15T03:14:40;0.10;99.60
360;DHT22;168;48.872;9.226;2023-02-15T03:17:09;-0.10;98.70
360;DHT22;168;48.872;9.226;2023-02-15T03:19:40;-0.20;97.70
360;DHT22;168;48.872;9.226;2023-02-15T03:22:14;-0.20;97.30
360;DHT22;168;48.872;9.226;2023-02-15T03:24:44;-0.10;97.60
360;DHT22;168;48.872;9.226;2023-02-15T03:27:15;-0.10;98.30
360;DHT22;168;48.872;9.226;2023-02-15T03:29:46;-0.10;98.30
360;DHT22;168;48.872;9.226;2023-02-15T03:32:14;0.00;98.30
360;DHT22;168;48.872;9.226;2023-02-15T03:34:44;0.00;98.60
360;DHT22;168;48.872;9.226;2023-02-15T03:37:15;0.10;99.20
360;DHT22;168;48.872;9.226;2023-02-15T03:39:48;0.10;99.50
360;DHT22;168;48.872;9.226;2023-02-15T03:42:22;0.10;99.90
360;DHT22;168;48.872;9.226;2023-02-15T03:44:54;0.20;99.90
360;DHT22;168;48.872;9.226;2023-02-15T03:47:27;0.30;99.90
360;DHT22;168;48.872;9.226;2023-02-15T03:50:01;0.10;99.90
360;DHT22;168;48.872;9.226;2023-02-15T03:52:31;0.10;99.90
360;DHT22;168;48.872;9.226;2023-02-15T03:54:58;0.10;99.90
360;DHT22;168;48.872;9.226;2023-02-15T03:57:27;0.10;99.90
360;DHT22;168;48.872;9.226;2023-02-15T04:00:14;0.10;99.90
360;DHT22;168;48.872;9.226;2023-02-15T04:03:22;0.10;99.70
360;DHT22;168;48.872;9.226;2023-02-15T04:05:52;0.10;99.10
360;DHT22;168;48.872;9.226;2023-02-15T04:08:19;0.00;98.30
360;DHT22;168;48.872;9.226;2023-02-15T04:11:06;-0.10;97.50
360;DHT22;168;48.872;9.226;2023-02-15T04:13:33;0.00;97.20
360;DHT22;168;48.872;9.226;2023-02-15T04:16:00;0.10;96.20
360;DHT22;168;48.872;9.226;2023-02-15T04:18:30;0.20;96.30
360;DHT22;168;48.872;9.226;2023-02-15T04:21:16;-0.10;97.20
360;DHT22;168;48.872;9.226;2023-02-15T04:24:01;-0.10;95.50
360;DHT22;168;48.872;9.226;2023-02-15T04:26:46;-0.10;94.10
360;DHT22;168;48.872;9.226;2023-02-15T04:29:14;-0.10;94.50
360;DHT22;168;48.872;9.226;2023-02-15T04:31:42;-0.10;93.00
360;DHT22;168;48.872;9.226;2023-02-15T04:34:09;0.00;93.20
360;DHT22;168;48.872;9.226;2023-02-15T04:36:39;0.00;92.90
360;DHT22;168;48.872;9.226;2023-02-15T04:39:07;0.00;93.20
360;DHT22;168;48.872;9.226;2023-02-15T04:41:35;0.10;93.30
360;DHT22;168;48.872;9.226;2023-02-15T04:44:03;0.00;93.90
360;DHT22;168;48.872;9.226;2023-02-15T04:46:30;-0.20;93.90
360;DHT22;168;48.872;9.226;2023-02-15T04:48:58;-0.20;93.30
360;DHT22;168;48.872;9.226;2023-02-15T04:51:25;-0.20;92.60
360;DHT22;168;48.872;9.226;2023-02-15T04:53:54;-0.20;92.40
360;DHT22;168;48.872;9.226;2023-02-15T04:56:22;-0.20;92.10
360;DHT22;168;48.872;9.226;2023-02-15T04:58:50;-0.20;91.60
360;DHT22;168;48.872;9.226;2023-02-15T05:01:17;0.00;91.30
360;DHT22;168;48.872;9.226;2023-02-15T05:03:44;0.00;92.40
360;DHT22;168;48.872;9.226;2023-02-15T05:06:12;-0.10;92.50
360;DHT22;168;48.872;9.226;2023-02-15T05:08:39;0.00;92.20
360;DHT22;168;48.872;9.226;2023-02-15T05:11:08;0.00;92.70
360;DHT22;168;48.872;9.226;2023-02-15T05:13:35;0.10;93.00
360;DHT22;168;48.872;9.226;2023-02-15T05:16:03;0.10;94.70
360;DHT22;168;48.872;9.226;2023-02-15T05:18:30;0.20;94.10
360;DHT22;168;48.872;9.226;2023-02-15T05:20:57;0.10;95.50
360;DHT22;168;48.872;9.226;2023-02-15T05:23:25;0.10;96.60
360;DHT22;168;48.872;9.226;2023-02-15T05:25:52;-0.10;95.60
360;DHT22;168;48.872;9.226;2023-02-15T05:28:39;-0.10;94.90
360;DHT22;168;48.872;9.226;2023-02-15T05:31:09;-0.10;94.60
360;DHT22;168;48.872;9.226;2023-02-15T05:33:37;-0.10;94.70
360;DHT22;168;48.872;9.226;2023-02-15T05:36:06;-0.20;95.10
360;DHT22;168;48.872;9.226;2023-02-15T05:38:34;-0.30;95.40
360;DHT22;168;48.872;9.226;2023-02-15T05:41:02;-0.30;94.00
360;DHT22;168;48.872;9.226;2023-02-15T05:43:30;-0.50;95.50
360;DHT22;168;48.872;9.226;2023-02-15T05:46:00;-0.60;94.50
360;DHT22;168;48.872;9.226;2023-02-15T05:48:28;-0.60;93.60
360;DHT22;168;48.872;9.226;2023-02-15T05:50:59;-0.60;92.60
360;DHT22;168;48.872;9.226;2023-02-15T05:53:27;-0.60;91.50
360;DHT22;168;48.872;9.226;2023-02-15T05:55:54;-0.50;90.80
360;DHT22;168;48.872;9.226;2023-02-15T05:58:25;-0.50;90.50
360;DHT22;168;48.872;9.226;2023-02-15T06:00:53;-0.40;90.00
360;DHT22;168;48.872;9.226;2023-02-15T06:03:22;-0.30;90.00
360;DHT22;168;48.872;9.226;2023-02-15T06:05:51;-0.20;90.40
360;DHT22;168;48.872;9.226;2023-02-15T06:08:19;-0.10;91.90
360;DHT22;168;48.872;9.226;2023-02-15T06:10:46;-0.10;92.20
360;DHT22;168;48.872;9.226;2023-02-15T06:13:14;-0.10;92.70
360;DHT22;168;48.872;9.226;2023-02-15T06:15:41;-0.10;93.00
360;DHT22;168;48.872;9.226;2023-02-15T06:18:09;0.00;94.20
360;DHT22;168;48.872;9.226;2023-02-15T06:20:37;-0.10;94.40
360;DHT22;168;48.872;9.226;2023-02-15T06:23:05;-0.10;94.00
360;DHT22;168;48.872;9.226;2023-02-15T06:25:33;-0.10;93.70
360;DHT22;168;48.872;9.226;2023-02-15T06:28:00;0.00;93.70
360;DHT22;168;48.872;9.226;2023-02-15T06:30:27;0.00;93.90
360;DHT22;168;48.872;9.226;2023-02-15T06:32:55;0.00;93.80
360;DHT22;168;48.872;9.226;2023-02-15T06:35:22;0.10;93.90
360;DHT22;168;48.872;9.226;2023-02-15T06:37:54;0.10;94.10
360;DHT22;168;48.872;9.226;2023-02-15T06:40:22;0.20;94.80
360;DHT22;168;48.872;9.226;2023-02-15T06:42:49;0.30;96.20
360;DHT22;168;48.872;9.226;2023-02-15T06:45:17;0.20;97.20
360;DHT22;168;48.872;9.226;2023-02-15T06:47:45;0.30;97.50
360;DHT22;168;48.872;9.226;2023-02-15T06:50:12;0.20;98.00
360;DHT22;168;48.872;9.226;2023-02-15T06:52:40;0.20;97.90
360;DHT22;168;48.872;9.226;2023-02-15T06:55:14;0.30;97.40
360;DHT22;168;48.872;9.226;2023-02-15T06:57:42;0.30;98.70
360;DHT22;168;48.872;9.226;2023-02-15T07:00:10;0.20;99.30
360;DHT22;168;48.872;9.226;2023-02-15T07:02:38;0.00;98.30
360;DHT22;168;48.872;9.226;2023-02-15T07:05:05;0.00;97.80
360;DHT22;168;48.872;9.226;2023-02-15T07:07:33;0.00;97.10
360;DHT22;168;48.872;9.226;2023-02-15T07:10:00;0.00;96.80
360;DHT22;168;48.872;9.226;2023-02-15T07:12:29;0.00;96.90
360;DHT22;168;48.872;9.226;2023-02-15T07:15:08;0.10;96.90
360;DHT22;168;48.872;9.226;2023-02-15T07:17:36;0.10;97.70
360;DHT22;168;48.872;9.226;2023-02-15T07:20:06;0.10;98.50
360;DHT22;168;48.872;9.226;2023-02-15T07:22:34;0.20;98.40
360;DHT22;168;48.872;9.226;2023-02-15T07:25:03;0.20;98.60
360;DHT22;168;48.872;9.226;2023-02-15T07:27:32;0.30;98.60
360;DHT22;168;48.872;9.226;2023-02-15T07:29:59;0.60;99.90
360;DHT22;168;48.872;9.226;2023-02-15T07:32:28;0.60;99.90
360;DHT22;168;48.872;9.226;2023-02-15T07:34:55;0.50;99.90
360;DHT22;168;48.872;9.226;2023-02-15T07:37:23;0.30;99.90
360;DHT22;168;48.872;9.226;2023-02-15T07:39:50;0.30;99.90
360;DHT22;168;48.872;9.226;2023-02-15T07:42:18;0.20;99.90
360;DHT22;168;48.872;9.226;2023-02-15T07:44:48;0.20;99.80
360;DHT22;168;48.872;9.226;2023-02-15T07:47:16;0.30;99.20
360;DHT22;168;48.872;9.226;2023-02-15T07:49:44;0.30;98.80
360;DHT22;168;48.872;9.226;2023-02-15T07:52:12;0.40;98.80
360;DHT22;168;48.872;9.226;2023-02-15T07:54:39;0.60;99.10
360;DHT22;168;48.872;9.226;2023-02-15T07:57:07;0.70;99.20
360;DHT22;168;48.872;9.226;2023-02-15T07:59:34;0.80;99.50
360;DHT22;168;48.872;9.226;2023-02-15T08:02:05;0.90;99.80
360;DHT22;168;48.872;9.226;2023-02-15T08:04:32;1.10;99.80
360;DHT22;168;48.872;9.226;2023-02-15T08:07:00;1.20;99.90
360;DHT22;168;48.872;9.226;2023-02-15T08:09:27;1.30;99.90
360;DHT22;168;48.872;9.226;2023-02-15T08:11:54;1.50;99.90
360;DHT22;168;48.872;9.226;2023-02-15T08:14:22;1.70;99.90
360;DHT22;168;48.872;9.226;2023-02-15T08:16:50;1.60;99.90
360;DHT22;168;48.872;9.226;2023-02-15T08:19:21;1.50;99.90
360;DHT22;168;48.872;9.226;2023-02-15T08:21:51;1.30;99.90
360;DHT22;168;48.872;9.226;2023-02-15T08:24:21;1.10;99.90
360;DHT22;168;48.872;9.226;2023-02-15T08:26:49;0.90;99.90
360;DHT22;168;48.872;9.226;2023-02-15T08:29:19;0.90;99.90
360;DHT22;168;48.872;9.226;2023-02-15T08:31:48;1.00;99.90
360;DHT22;168;48.872;9.226;2023-02-15T08:34:17;1.00;99.80
360;DHT22;168;48.872;9.226;2023-02-15T08:36:46;1.10;99.90
360;DHT22;168;48.872;9.226;2023-02-15T08:39:14;1.20;99.90
360;DHT22;168;48.872;9.226;2023-02-15T08:41:43;1.30;99.90
360;DHT22;168;48.872;9.226;2023-02-15T08:44:10;1.50;99.90
360;DHT22;168;48.872;9.226;2023-02-15T08:46:40;1.70;99.90
360;DHT22;168;48.872;9.226;2023-02-15T08:49:07;1.80;99.90
360;DHT22;168;48.872;9.226;2023-02-15T08:51:36;1.80;99.90
360;DHT22;168;48.872;9.226;2023-02-15T08:54:08;2.00;99.90
360;DHT22;168;48.872;9.226;2023-02-15T08:56:39;2.10;99.90
360;DHT22;168;48.872;9.226;2023-02-15T08:59:12;2.30;99.90
360;DHT22;168;48.872;9.226;2023-02-15T09:01:39;2.40;99.90
360;DHT22;168;48.872;9.226;2023-02-15T09:04:07;2.40;99.90
360;DHT22;168;48.872;9.226;2023-02-15T09:06:36;2.40;99.90
360;DHT22;168;48.872;9.226;2023-02-15T09:09:05;2.30;99.90
360;DHT22;168;48.872;9.226;2023-02-15T09:11:35;2.20;99.90
360;DHT22;168;48.872;9.226;2023-02-15T09:14:04;2.10;99.90
360;DHT22;168;48.872;9.226;2023-02-15T09:16:34;2.10;99.90
360;DHT22;168;48.872;9.226;2023-02-15T09:19:02;2.20;99.90
360;DHT22;168;48.872;9.226;2023-02-15T09:21:31;2.40;99.90
360;DHT22;168;48.872;9.226;2023-02-15T09:24:00;2.60;99.90
360;DHT22;168;48.872;9.226;2023-02-15T09:26:31;2.70;99.90
360;DHT22;168;48.872;9.226;2023-02-15T09:28:59;3.00;99.90
360;DHT22;168;48.872;9.226;2023-02-15T09:31:30;3.00;99.90
360;DHT22;168;48.872;9.226;2023-02-15T09:33:58;3.00;99.90
360;DHT22;168;48.872;9.226;2023-02-15T09:36:29;3.10;99.90
360;DHT22;168;48.872;9.226;2023-02-15T09:38:57;3.30;99.90
360;DHT22;168;48.872;9.226;2023-02-15T09:47:49;3.60;99.90
360;DHT22;168;48.872;9.226;2023-02-15T09:50:26;3.70;99.30
360;DHT22;168;48.872;9.226;2023-02-15T09:53:12;3.70;99.40
360;DHT22;168;48.872;9.226;2023-02-15T09:55:53;3.80;99.60
360;DHT22;168;48.872;9.226;2023-02-15T09:58:32;4.10;99.60
360;DHT22;168;48.872;9.226;2023-02-15T10:01:07;4.30;99.10
360;DHT22;168;48.872;9.226;2023-02-15T10:03:42;4.40;98.50
360;DHT22;168;48.872;9.226;2023-02-15T10:06:37;4.50;97.80
360;DHT22;168;48.872;9.226;2023-02-15T10:09:20;4.60;97.00
360;DHT22;168;48.872;9.226;2023-02-15T10:12:05;4.70;97.30
360;DHT22;168;48.872;9.226;2023-02-15T10:15:02;4.70;97.40
360;DHT22;168;48.872;9.226;2023-02-15T10:17:44;4.80;96.70
360;DHT22;168;48.872;9.226;2023-02-15T10:20:20;4.80;96.30
360;DHT22;168;48.872;9.226;2023-02-15T10:23:02;4.80;96.30
360;DHT22;168;48.872;9.226;2023-02-15T10:25:39;4.80;96.30
360;DHT22;168;48.872;9.226;2023-02-15T10:28:13;4.70;96.40
360;DHT22;168;48.872;9.226;2023-02-15T10:30:47;4.70;96.90
360;DHT22;168;48.872;9.226;2023-02-15T10:33:26;4.70;97.40
360;DHT22;168;48.872;9.226;2023-02-15T10:36:05;4.70;97.40
360;DHT22;168;48.872;9.226;2023-02-15T10:38:38;4.80;97.70
360;DHT22;168;48.872;9.226;2023-02-15T10:41:17;4.90;98.00
360;DHT22;168;48.872;9.226;2023-02-15T10:44:01;5.00;97.40
360;DHT22;168;48.872;9.226;2023-02-15T10:49:45;5.10;97.10
360;DHT22;168;48.872;9.226;2023-02-15T10:52:23;5.20;96.70
360;DHT22;168;48.872;9.226;2023-02-15T10:55:02;5.10;97.20
360;DHT22;168;48.872;9.226;2023-02-15T10:57:36;4.90;98.10
360;DHT22;168;48.872;9.226;2023-02-15T11:00:13;4.90;98.50
360;DHT22;168;48.872;9.226;2023-02-15T11:05:42;5.20;98.30
360;DHT22;168;48.872;9.226;2023-02-15T11:08:15;5.30;97.50
360;DHT22;168;48.872;9.226;2023-02-15T11:10:45;5.40;97.70
360;DHT22;168;48.872;9.226;2023-02-15T11:13:16;5.20;97.60
360;DHT22;168;48.872;9.226;2023-02-15T11:15:46;5.20;97.90
360;DHT22;168;48.872;9.226;2023-02-15T11:18:21;5.30;98.00
360;DHT22;168;48.872;9.226;2023-02-15T11:20:54;5.60;98.00
360;DHT22;168;48.872;9.226;2023-02-15T11:23:24;5.70;97.70
360;DHT22;168;48.872;9.226;2023-02-15T11:25:56;5.70;96.90
360;DHT22;168;48.872;9.226;2023-02-15T11:28:30;5.70;97.20
360;DHT22;168;48.872;9.226;2023-02-15T11:31:02;5.80;97.80
360;DHT22;168;48.872;9.226;2023-02-15T11:33:35;5.80;98.30
360;DHT22;168;48.872;9.226;2023-02-15T11:36:08;6.00;97.70
360;DHT22;168;48.872;9.226;2023-02-15T11:38:36;6.10;98.30
360;DHT22;168;48.872;9.226;2023-02-15T11:41:09;6.20;98.60
360;DHT22;168;48.872;9.226;2023-02-15T11:43:39;6.40;97.80
360;DHT22;168;48.872;9.226;2023-02-15T11:46:11;6.50;97.00
360;DHT22;168;48.872;9.226;2023-02-15T11:48:42;6.30;96.80
360;DHT22;168;48.872;9.226;2023-02-15T11:51:14;6.10;97.50
360;DHT22;168;48.872;9.226;2023-02-15T11:53:43;6.00;98.30
360;DHT22;168;48.872;9.226;2023-02-15T11:56:16;6.00;98.30
360;DHT22;168;48.872;9.226;2023-02-15T11:58:57;6.00;98.40
360;DHT22;168;48.872;9.226;2023-02-15T12:01:30;5.90;99.00
360;DHT22;168;48.872;9.226;2023-02-15T12:04:04;5.80;98.90
360;DHT22;168;48.872;9.226;2023-02-15T12:06:37;5.90;98.80
360;DHT22;168;48.872;9.226;2023-02-15T12:09:12;5.90;99.00
360;DHT22;168;48.872;9.226;2023-02-15T12:11:41;5.90;98.60
360;DHT22;168;48.872;9.226;2023-02-15T12:14:10;6.00;98.40
360;DHT22;168;48.872;9.226;2023-02-15T12:16:43;6.20;98.00
360;DHT22;168;48.872;9.226;2023-02-15T12:19:28;6.20;98.40
360;DHT22;168;48.872;9.226;2023-02-15T12:21:56;6.20;98.20
360;DHT22;168;48.872;9.226;2023-02-15T12:24:27;6.30;98.20
360;DHT22;168;48.872;9.226;2023-02-15T12:26:58;6.30;98.00
360;DHT22;168;48.872;9.226;2023-02-15T12:29:29;6.40;98.10
360;DHT22;168;48.872;9.226;2023-02-15T12:31:58;6.30;97.80
360;DHT22;168;48.872;9.226;2023-02-15T12:34:30;6.30;97.80
360;DHT22;168;48.872;9.226;2023-02-15T12:37:02;6.30;97.70
360;DHT22;168;48.872;9.226;2023-02-15T12:39:34;6.30;97.80
360;DHT22;168;48.872;9.226;2023-02-15T12:42:05;6.30;97.90
360;DHT22;168;48.872;9.226;2023-02-15T12:44:53;6.30;98.00
360;DHT22;168;48.872;9.226;2023-02-15T12:47:21;6.50;97.60
360;DHT22;168;48.872;9.226;2023-02-15T12:50:07;6.50;96.80
360;DHT22;168;48.872;9.226;2023-02-15T12:52:47;6.50;97.00
360;DHT22;168;48.872;9.226;2023-02-15T12:56:20;6.60;97.10
360;DHT22;168;48.872;9.226;2023-02-15T12:59:47;6.80;96.60
360;DHT22;168;48.872;9.226;2023-02-15T13:02:27;6.70;96.90
360;DHT22;168;48.872;9.226;2023-02-15T13:04:57;6.80;96.50
360;DHT22;168;48.872;9.226;2023-02-15T13:07:31;6.90;96.20
360;DHT22;168;48.872;9.226;2023-02-15T13:09:59;7.10;95.40
360;DHT22;168;48.872;9.226;2023-02-15T13:12:28;7.10;95.40
360;DHT22;168;48.872;9.226;2023-02-15T13:14:58;7.30;95.10
360;DHT22;168;48.872;9.226;2023-02-15T13:17:30;7.50;94.30
360;DHT22;168;48.872;9.226;2023-02-15T13:20:02;7.50;93.30
360;DHT22;168;48.872;9.226;2023-02-15T13:22:37;7.60;93.40
360;DHT22;168;48.872;9.226;2023-02-15T13:25:13;7.70;93.10
360;DHT22;168;48.872;9.226;2023-02-15T13:27:42;7.80;93.40
360;DHT22;168;48.872;9.226;2023-02-15T13:30:20;7.90;92.20
360;DHT22;168;48.872;9.226;2023-02-15T13:32:51;7.90;92.50
360;DHT22;168;48.872;9.226;2023-02-15T13:35:18;8.10;91.90
360;DHT22;168;48.872;9.226;2023-02-15T13:38:02;8.20;91.70
360;DHT22;168;48.872;9.226;2023-02-15T13:40:37;8.30;90.50
360;DHT22;168;48.872;9.226;2023-02-15T13:43:19;8.20;90.40
360;DHT22;168;48.872;9.226;2023-02-15T13:45:57;8.20;90.90
360;DHT22;168;48.872;9.226;2023-02-15T13:48:37;8.10;91.20
360;DHT22;168;48.872;9.226;2023-02-15T13:51:13;8.30;90.90
360;DHT22;168;48.872;9.226;2023-02-15T13:54:03;8.40;91.00
360;DHT22;168;48.872;9.226;2023-02-15T13:56:42;8.50;90.30
360;DHT22;168;48.872;9.226;2023-02-15T13:59:26;8.60;89.90
360;DHT22;168;48.872;9.226;2023-02-15T14:01:58;8.70;89.90
360;DHT22;168;48.872;9.226;2023-02-15T14:07:33;8.80;90.20
360;DHT22;168;48.872;9.226;2023-02-15T14:10:21;9.00;89.40
360;DHT22;168;48.872;9.226;2023-02-15T14:13:04;9.20;88.70
360;DHT22;168;48.872;9.226;2023-02-15T14:15:35;9.30;88.10
360;DHT22;168;48.872;9.226;2023-02-15T14:18:16;9.30;87.70
360;DHT22;168;48.872;9.226;2023-02-15T14:20:51;9.30;87.10
360;DHT22;168;48.872;9.226;2023-02-15T14:23:29;9.40;87.30
360;DHT22;168;48.872;9.226;2023-02-15T14:26:08;9.40;86.70
360;DHT22;168;48.872;9.226;2023-02-15T14:28:43;9.60;85.40
360;DHT22;168;48.872;9.226;2023-02-15T14:31:13;9.60;85.10
360;DHT22;168;48.872;9.226;2023-02-15T14:33:47;9.50;85.30
360;DHT22;168;48.872;9.226;2023-02-15T14:36:19;9.70;84.50
360;DHT22;168;48.872;9.226;2023-02-15T14:39:02;9.80;84.20
360;DHT22;168;48.872;9.226;2023-02-15T14:41:58;9.90;85.00
360;DHT22;168;48.872;9.226;2023-02-15T14:44:33;9.80;86.10
360;DHT22;168;48.872;9.226;2023-02-15T14:47:07;9.90;85.60
360;DHT22;168;48.872;9.226;2023-02-15T14:49:39;10.10;84.40
360;DHT22;168;48.872;9.226;2023-02-15T14:52:08;10.10;84.10
360;DHT22;168;48.872;9.226;2023-02-15T14:54:57;10.10;84.40
360;DHT22;168;48.872;9.226;2023-02-15T14:57:28;10.10;83.40
360;DHT22;168;48.872;9.226;2023-02-15T14:59:59;10.30;82.90
360;DHT22;168;48.872;9.226;2023-02-15T15:02:29;10.30;83.80
360;DHT22;168;48.872;9.226;2023-02-15T15:05:02;10.40;82.40
360;DHT22;168;48.872;9.226;2023-02-15T15:07:40;10.40;82.40
360;DHT22;168;48.872;9.226;2023-02-15T15:10:34;10.60;81.40
360;DHT22;168;48.872;9.226;2023-02-15T15:13:40;10.70;80.60
360;DHT22;168;48.872;9.226;2023-02-15T15:16:47;10.70;80.70
360;DHT22;168;48.872;9.226;2023-02-15T15:22:18;10.60;80.00
360;DHT22;168;48.872;9.226;2023-02-15T15:24:50;10.60;80.00
360;DHT22;168;48.872;9.226;2023-02-15T15:27:47;10.60;79.50
360;DHT22;168;48.872;9.226;2023-02-15T15:37:18;10.50;80.70
360;DHT22;168;48.872;9.226;2023-02-15T15:46:34;10.60;80.60
360;DHT22;168;48.872;9.226;2023-02-15T15:49:09;10.50;80.80
360;DHT22;168;48.872;9.226;2023-02-15T15:51:40;10.50;81.10
360;DHT22;168;48.872;9.226;2023-02-15T15:54:15;10.40;81.50
360;DHT22;168;48.872;9.226;2023-02-15T15:56:45;10.40;81.90
360;DHT22;168;48.872;9.226;2023-02-15T15:59:19;10.40;81.70
360;DHT22;168;48.872;9.226;2023-02-15T16:01:48;10.50;81.40
360;DHT22;168;48.872;9.226;2023-02-15T16:04:25;10.60;81.20
360;DHT22;168;48.872;9.226;2023-02-15T16:06:53;10.60;81.10
360;DHT22;168;48.872;9.226;2023-02-15T16:09:22;10.60;80.80
360;DHT22;168;48.872;9.226;2023-02-15T16:11:52;10.60;80.70
360;DHT22;168;48.872;9.226;2023-02-15T16:14:26;10.50;81.50
360;DHT22;168;48.872;9.226;2023-02-15T16:16:56;10.30;82.30
360;DHT22;168;48.872;9.226;2023-02-15T16:19:28;10.10;83.20
360;DHT22;168;48.872;9.226;2023-02-15T16:21:58;10.10;83.60
360;DHT22;168;48.872;9.226;2023-02-15T16:24:51;10.20;83.40
360;DHT22;168;48.872;9.226;2023-02-15T16:27:32;10.00;83.70
360;DHT22;168;48.872;9.226;2023-02-15T16:30:19;9.90;84.30
360;DHT22;168;48.872;9.226;2023-02-15T16:32:47;9.80;84.90
360;DHT22;168;48.872;9.226;2023-02-15T16:35:18;9.60;85.60
360;DHT22;168;48.872;9.226;2023-02-15T16:37:46;9.60;86.20
360;DHT22;168;48.872;9.226;2023-02-15T16:40:30;9.60;85.90
360;DHT22;168;48.872;9.226;2023-02-15T16:43:03;9.40;86.60
360;DHT22;168;48.872;9.226;2023-02-15T16:45:31;9.30;87.00
360;DHT22;168;48.872;9.226;2023-02-15T16:48:00;9.30;87.00
360;DHT22;168;48.872;9.226;2023-02-15T16:50:35;9.20;87.00
360;DHT22;168;48.872;9.226;2023-02-15T16:53:05;8.90;88.30
360;DHT22;168;48.872;9.226;2023-02-15T16:55:37;9.00;88.50
360;DHT22;168;48.872;9.226;2023-02-15T16:58:07;9.10;88.00
360;DHT22;168;48.872;9.226;2023-02-15T17:00:39;9.00;88.10
360;DHT22;168;48.872;9.226;2023-02-15T17:03:21;8.90;88.30
360;DHT22;168;48.872;9.226;2023-02-15T17:05:52;8.60;89.20
360;DHT22;168;48.872;9.226;2023-02-15T17:08:26;8.40;90.20
360;DHT22;168;48.872;9.226;2023-02-15T17:11:13;8.20;90.70
360;DHT22;168;48.872;9.226;2023-02-15T17:14:10;8.00;91.70
360;DHT22;168;48.872;9.226;2023-02-15T17:16:42;7.90;92.50
360;DHT22;168;48.872;9.226;2023-02-15T17:19:17;7.80;93.20
360;DHT22;168;48.872;9.226;2023-02-15T17:21:50;7.80;93.40
360;DHT22;168;48.872;9.226;2023-02-15T17:24:23;7.80;93.20
360;DHT22;168;48.872;9.226;2023-02-15T17:26:55;7.70;93.50
360;DHT22;168;48.872;9.226;2023-02-15T17:29:32;7.70;93.50
360;DHT22;168;48.872;9.226;2023-02-15T17:32:01;7.60;93.60
360;DHT22;168;48.872;9.226;2023-02-15T17:34:51;7.60;93.90
360;DHT22;168;48.872;9.226;2023-02-15T17:37:28;7.60;94.10
360;DHT22;168;48.872;9.226;2023-02-15T17:39:56;7.60;94.50
360;DHT22;168;48.872;9.226;2023-02-15T17:42:24;7.70;94.30
360;DHT22;168;48.872;9.226;2023-02-15T17:44:51;7.80;93.80
360;DHT22;168;48.872;9.226;2023-02-15T17:47:20;7.60;94.00
360;DHT22;168;48.872;9.226;2023-02-15T17:49:50;7.50;94.50
360;DHT22;168;48.872;9.226;2023-02-15T17:52:18;7.30;95.00
360;DHT22;168;48.872;9.226;2023-02-15T17:54:47;7.20;95.40
360;DHT22;168;48.872;9.226;2023-02-15T17:57:31;7.10;95.80
360;DHT22;168;48.872;9.226;2023-02-15T17:59:59;7.10;95.80
360;DHT22;168;48.872;9.226;2023-02-15T18:02:45;7.10;96.00